Terminal Aerodrome Forecast
Issued by NWS Cleveland, OH

Home | Current Version | Previous Version | Text Only | Print | Product List | Glossary On
Versions: 1 2 3 4 5 6 7 8 9 10 11 12 13 14 15
338
FTUS41 KCLE 220530
TAFCAK
TAF
KCAK 220530Z 2206/2306 VRB03KT P6SM FEW040 BKN200
     FM221000 VRB03KT 6SM BR VCTS SCT040CB BKN120
     FM221200 18004KT 6SM -SHRA BKN040
      TEMPO 2212/2215 3SM -TSRA OVC030CB
     FM221500 22007KT 5SM -SHRA BR VCTS OVC030CB
     FM221700 22007KT P6SM -SHRA VCTS SCT035CB OVC040
     FM222200 23010KT P6SM SCT025 BKN060
     FM230500 21006KT 6SM BR BKN030=

USA.gov is the U.S. government's official web portal to all federal, state and local government web resources and services.